sensor_id;sensor_type;location;lat;lon;timestamp;pressure;altitude;pressure_sealevel;temperature;humidity
43420;BME280;29017;51.514;-0.178;2023-02-10T00:01:24;103235.72;;;7.29;76.41
43420;BME280;29017;51.514;-0.178;2023-02-10T00:03:51;103236.72;;;7.26;76.46
43420;BME280;29017;51.514;-0.178;2023-02-10T00:06:20;103235.03;;;7.25;76.36
43420;BME280;29017;51.514;-0.178;2023-02-10T00:08:47;103224.78;;;7.21;76.48
43420;BME280;29017;51.514;-0.178;2023-02-10T00:11:15;103232.63;;;7.21;76.46
43420;BME280;29017;51.514;-0.178;2023-02-10T00:13:42;103222.28;;;7.18;76.68
43420;BME280;29017;51.514;-0.178;2023-02-10T00:16:10;103218.91;;;7.16;77.01
43420;BME280;29017;51.514;-0.178;2023-02-10T00:18:37;103219.03;;;7.13;76.81
43420;BME280;29017;51.514;-0.178;2023-02-10T00:23:33;103218.34;;;7.09;76.64
43420;BME280;29017;51.514;-0.178;2023-02-10T00:28:31;103220.25;;;7.06;76.73
43420;BME280;29017;51.514;-0.178;2023-02-10T00:30:58;103223.69;;;7.06;77.30
43420;BME280;29017;51.514;-0.178;2023-02-10T00:33:25;103217.56;;;7.07;76.99
43420;BME280;29017;51.514;-0.178;2023-02-10T00:35:52;103210.69;;;7.05;76.82
43420;BME280;29017;51.514;-0.178;2023-02-10T00:38:19;103210.69;;;7.05;77.08
43420;BME280;29017;51.514;-0.178;2023-02-10T00:40:46;103202.97;;;7.02;77.14
43420;BME280;29017;51.514;-0.178;2023-02-10T00:43:13;103206.44;;;7.02;77.32
43420;BME280;29017;51.514;-0.178;2023-02-10T00:45:40;103209.97;;;7.01;77.39
43420;BME280;29017;51.514;-0.178;2023-02-10T00:48:07;103205.59;;;7.02;77.45
43420;BME280;29017;51.514;-0.178;2023-02-10T00:50:34;103210.06;;;7.00;77.39
43420;BME280;29017;51.514;-0.178;2023-02-10T00:53:01;103192.66;;;6.99;77.69
43420;BME280;29017;51.514;-0.178;2023-02-10T00:55:28;103202.34;;;6.97;77.61
43420;BME280;29017;51.514;-0.178;2023-02-10T00:57:55;103199.81;;;6.95;77.69
43420;BME280;29017;51.514;-0.178;2023-02-10T01:00:21;103212.09;;;6.93;77.72
43420;BME280;29017;51.514;-0.178;2023-02-10T01:02:48;103212.16;;;6.92;77.93
43420;BME280;29017;51.514;-0.178;2023-02-10T01:05:15;103214.88;;;6.90;77.88
43420;BME280;29017;51.514;-0.178;2023-02-10T01:07:42;103215.09;;;6.85;77.98
43420;BME280;29017;51.514;-0.178;2023-02-10T01:10:09;103210.81;;;6.83;78.30
43420;BME280;29017;51.514;-0.178;2023-02-10T01:12:36;103213.44;;;6.83;78.44
43420;BME280;29017;51.514;-0.178;2023-02-10T01:15:03;103210.88;;;6.81;78.69
43420;BME280;29017;51.514;-0.178;2023-02-10T01:17:30;103207.50;;;6.79;78.78
43420;BME280;29017;51.514;-0.178;2023-02-10T01:19:57;103213.66;;;6.78;78.94
43420;BME280;29017;51.514;-0.178;2023-02-10T01:22:24;103198.81;;;6.79;79.01
43420;BME280;29017;51.514;-0.178;2023-02-10T01:24:51;103205.00;;;6.76;79.02
43420;BME280;29017;51.514;-0.178;2023-02-10T01:27:18;103210.44;;;6.72;78.90
43420;BME280;29017;51.514;-0.178;2023-02-10T01:29:45;103215.69;;;6.72;78.99
43420;BME280;29017;51.514;-0.178;2023-02-10T01:32:12;103214.84;;;6.71;79.41
43420;BME280;29017;51.514;-0.178;2023-02-10T01:34:39;103222.03;;;6.66;79.21
43420;BME280;29017;51.514;-0.178;2023-02-10T01:37:05;103224.75;;;6.65;79.31
43420;BME280;29017;51.514;-0.178;2023-02-10T01:39:32;103212.56;;;6.64;79.14
43420;BME280;29017;51.514;-0.178;2023-02-10T01:42:00;103209.09;;;6.63;79.34
43420;BME280;29017;51.514;-0.178;2023-02-10T01:46:55;103204.78;;;6.62;79.38
43420;BME280;29017;51.514;-0.178;2023-02-10T01:49:24;103201.47;;;6.59;79.15
43420;BME280;29017;51.514;-0.178;2023-02-10T01:51:53;103211.13;;;6.57;79.28
43420;BME280;29017;51.514;-0.178;2023-02-10T01:54:23;103206.91;;;6.54;79.72
43420;BME280;29017;51.514;-0.178;2023-02-10T01:56:51;103204.34;;;6.53;79.83
43420;BME280;29017;51.514;-0.178;2023-02-10T01:59:19;103204.56;;;6.48;79.79
43420;BME280;29017;51.514;-0.178;2023-02-10T02:01:47;103198.63;;;6.44;79.84
43420;BME280;29017;51.514;-0.178;2023-02-10T02:04:15;103208.28;;;6.42;80.29
43420;BME280;29017;51.514;-0.178;2023-02-10T02:06:42;103207.44;;;6.42;80.51
43420;BME280;29017;51.514;-0.178;2023-02-10T02:09:09;103209.19;;;6.41;80.77
43420;BME280;29017;51.514;-0.178;2023-02-10T02:11:41;103212.66;;;6.42;80.51
43420;BME280;29017;51.514;-0.178;2023-02-10T02:16:43;103214.47;;;6.40;81.11
43420;BME280;29017;51.514;-0.178;2023-02-10T02:24:17;103212.91;;;6.36;80.64
43420;BME280;29017;51.514;-0.178;2023-02-10T02:34:17;103228.28;;;6.23;80.57
43420;BME280;29017;51.514;-0.178;2023-02-10T02:36:50;103221.50;;;6.19;80.40
43420;BME280;29017;51.514;-0.178;2023-02-10T02:39:18;103219.84;;;6.17;80.38
43420;BME280;29017;51.514;-0.178;2023-02-10T02:41:56;103216.53;;;6.13;80.39
43420;BME280;29017;51.514;-0.178;2023-02-10T02:44:25;103213.91;;;6.13;80.58
43420;BME280;29017;51.514;-0.178;2023-02-10T02:46:55;103213.13;;;6.11;80.67
43420;BME280;29017;51.514;-0.178;2023-02-10T02:49:27;103206.13;;;6.12;80.77
43420;BME280;29017;51.514;-0.178;2023-02-10T02:52:02;103210.50;;;6.11;80.76
43420;BME280;29017;51.514;-0.178;2023-02-10T02:57:04;103214.03;;;6.10;80.33
43420;BME280;29017;51.514;-0.178;2023-02-10T02:59:35;103218.41;;;6.10;80.56
43420;BME280;29017;51.514;-0.178;2023-02-10T03:02:07;103219.34;;;6.09;80.41
43420;BME280;29017;51.514;-0.178;2023-02-10T03:04:37;103209.84;;;6.06;80.07
43420;BME280;29017;51.514;-0.178;2023-02-10T03:07:05;103211.56;;;6.07;80.41
43420;BME280;29017;51.514;-0.178;2023-02-10T03:09:32;103207.13;;;6.09;80.35
43420;BME280;29017;51.514;-0.178;2023-02-10T03:12:00;103207.03;;;6.11;80.42
43420;BME280;29017;51.514;-0.178;2023-02-10T03:14:27;103209.53;;;6.14;80.34
43420;BME280;29017;51.514;-0.178;2023-02-10T03:16:53;103201.81;;;6.11;79.80
43420;BME280;29017;51.514;-0.178;2023-02-10T03:19:20;103202.88;;;6.07;79.57
43420;BME280;29017;51.514;-0.178;2023-02-10T03:21:47;103193.31;;;6.06;79.89
43420;BME280;29017;51.514;-0.178;2023-02-10T03:24:14;103196.94;;;6.03;79.98
43420;BME280;29017;51.514;-0.178;2023-02-10T03:26:43;103194.44;;;6.00;80.09
43420;BME280;29017;51.514;-0.178;2023-02-10T03:29:11;103197.88;;;6.00;80.17
43420;BME280;29017;51.514;-0.178;2023-02-10T03:31:38;103201.34;;;6.01;80.68
43420;BME280;29017;51.514;-0.178;2023-02-10T03:34:05;103193.47;;;6.03;80.30
43420;BME280;29017;51.514;-0.178;2023-02-10T03:36:33;103183.00;;;6.03;80.53
43420;BME280;29017;51.514;-0.178;2023-02-10T03:39:00;103190.00;;;6.02;81.19
43420;BME280;29017;51.514;-0.178;2023-02-10T03:41:27;103191.06;;;5.98;81.05
43420;BME280;29017;51.514;-0.178;2023-02-10T03:43:54;103192.91;;;5.94;81.45
43420;BME280;29017;51.514;-0.178;2023-02-10T03:46:21;103193.06;;;5.91;82.44
43420;BME280;29017;51.514;-0.178;2023-02-10T03:48:48;103199.34;;;5.87;82.99
43420;BME280;29017;51.514;-0.178;2023-02-10T03:51:15;103197.56;;;5.88;84.43
43420;BME280;29017;51.514;-0.178;2023-02-10T03:53:42;103196.78;;;5.84;84.60
43420;BME280;29017;51.514;-0.178;2023-02-10T03:56:09;103190.09;;;5.79;84.56
43420;BME280;29017;51.514;-0.178;2023-02-10T03:58:37;103189.34;;;5.75;83.64
43420;BME280;29017;51.514;-0.178;2023-02-10T04:03:34;103174.56;;;5.74;85.40
43420;BME280;29017;51.514;-0.178;2023-02-10T04:06:01;103165.94;;;5.74;85.84
43420;BME280;29017;51.514;-0.178;2023-02-10T04:08:28;103163.41;;;5.71;84.87
43420;BME280;29017;51.514;-0.178;2023-02-10T04:10:55;103168.78;;;5.68;84.23
43420;BME280;29017;51.514;-0.178;2023-02-10T04:13:22;103175.81;;;5.66;83.92
43420;BME280;29017;51.514;-0.178;2023-02-10T04:15:49;103175.97;;;5.63;83.87
43420;BME280;29017;51.514;-0.178;2023-02-10T04:18:25;103186.31;;;5.64;84.25
43420;BME280;29017;51.514;-0.178;2023-02-10T04:20:52;103187.31;;;5.62;83.95
43420;BME280;29017;51.514;-0.178;2023-02-10T04:23:19;103192.72;;;5.57;83.58
43420;BME280;29017;51.514;-0.178;2023-02-10T04:25:46;103176.34;;;5.53;83.31
43420;BME280;29017;51.514;-0.178;2023-02-10T04:28:13;103182.50;;;5.51;83.52
43420;BME280;29017;51.514;-0.178;2023-02-10T04:30:40;103186.94;;;5.49;83.93
43420;BME280;29017;51.514;-0.178;2023-02-10T04:33:07;103177.47;;;5.46;84.03
43420;BME280;29017;51.514;-0.178;2023-02-10T04:35:34;103173.97;;;5.47;84.74
43420;BME280;29017;51.514;-0.178;2023-02-10T04:38:01;103173.97;;;5.47;84.72
43420;BME280;29017;51.514;-0.178;2023-02-10T04:40:30;103193.19;;;5.45;84.09
43420;BME280;29017;51.514;-0.178;2023-02-10T04:42:57;103193.44;;;5.39;83.23
43420;BME280;29017;51.514;-0.178;2023-02-10T04:45:24;103202.19;;;5.38;83.09
43420;BME280;29017;51.514;-0.178;2023-02-10T04:47:51;103189.91;;;5.40;83.32
43420;BME280;29017;51.514;-0.178;2023-02-10T04:50:17;103169.88;;;5.40;84.27
43420;BME280;29017;51.514;-0.178;2023-02-10T04:52:44;103185.69;;;5.37;83.15
43420;BME280;29017;51.514;-0.178;2023-02-10T04:55:11;103175.34;;;5.34;83.02
43420;BME280;29017;51.514;-0.178;2023-02-10T04:57:38;103180.47;;;5.37;83.20
43420;BME280;29017;51.514;-0.178;2023-02-10T05:00:05;103181.31;;;5.38;83.67
43420;BME280;29017;51.514;-0.178;2023-02-10T05:02:33;103173.34;;;5.41;85.15
43420;BME280;29017;51.514;-0.178;2023-02-10T05:05:00;103169.69;;;5.45;86.75
43420;BME280;29017;51.514;-0.178;2023-02-10T05:07:27;103184.66;;;5.41;85.91
43420;BME280;29017;51.514;-0.178;2023-02-10T05:09:53;103190.09;;;5.35;84.28
43420;BME280;29017;51.514;-0.178;2023-02-10T05:12:23;103196.22;;;5.34;84.17
43420;BME280;29017;51.514;-0.178;2023-02-10T05:14:51;103182.28;;;5.35;83.82
43420;BME280;29017;51.514;-0.178;2023-02-10T05:17:18;103177.84;;;5.37;83.63
43420;BME280;29017;51.514;-0.178;2023-02-10T05:19:44;103176.94;;;5.38;84.90
43420;BME280;29017;51.514;-0.178;2023-02-10T05:22:11;103190.81;;;5.39;85.73
43420;BME280;29017;51.514;-0.178;2023-02-10T05:24:38;103188.28;;;5.37;85.12
43420;BME280;29017;51.514;-0.178;2023-02-10T05:27:05;103183.00;;;5.39;84.62
43420;BME280;29017;51.514;-0.178;2023-02-10T05:29:32;103182.16;;;5.38;84.27
43420;BME280;29017;51.514;-0.178;2023-02-10T05:31:59;103184.69;;;5.40;84.57
43420;BME280;29017;51.514;-0.178;2023-02-10T05:34:26;103176.81;;;5.41;85.47
43420;BME280;29017;51.514;-0.178;2023-02-10T05:36:53;103185.50;;;5.42;85.87
43420;BME280;29017;51.514;-0.178;2023-02-10T05:39:20;103188.81;;;5.45;86.14
43420;BME280;29017;51.514;-0.178;2023-02-10T05:41:51;103191.38;;;5.47;86.02
43420;BME280;29017;51.514;-0.178;2023-02-10T05:44:18;103188.81;;;5.45;84.74
43420;BME280;29017;51.514;-0.178;2023-02-10T05:46:45;103185.50;;;5.42;83.98
43420;BME280;29017;51.514;-0.178;2023-02-10T05:49:12;103189.06;;;5.39;83.21
43420;BME280;29017;51.514;-0.178;2023-02-10T05:51:39;103196.03;;;5.39;83.11
43420;BME280;29017;51.514;-0.178;2023-02-10T05:54:06;103205.53;;;5.41;82.96
43420;BME280;29017;51.514;-0.178;2023-02-10T05:56:33;103194.22;;;5.41;83.34
43420;BME280;29017;51.514;-0.178;2023-02-10T05:59:01;103192.53;;;5.40;83.03
43420;BME280;29017;51.514;-0.178;2023-02-10T06:01:28;103196.13;;;5.37;82.78
43420;BME280;29017;51.514;-0.178;2023-02-10T06:03:55;103198.84;;;5.34;82.72
43420;BME280;29017;51.514;-0.178;2023-02-10T06:06:22;103189.44;;;5.30;82.44
43420;BME280;29017;51.514;-0.178;2023-02-10T06:08:48;103189.56;;;5.27;82.79
43420;BME280;29017;51.514;-0.178;2023-02-10T06:11:15;103188.81;;;5.24;83.08
43420;BME280;29017;51.514;-0.178;2023-02-10T06:13:42;103185.47;;;5.20;83.32
43420;BME280;29017;51.514;-0.178;2023-02-10T06:16:09;103188.03;;;5.22;83.85
43420;BME280;29017;51.514;-0.178;2023-02-10T06:18:37;103187.13;;;5.23;84.04
43420;BME280;29017;51.514;-0.178;2023-02-10T06:21:05;103194.03;;;5.24;83.65
43420;BME280;29017;51.514;-0.178;2023-02-10T06:23:32;103196.63;;;5.24;83.68
43420;BME280;29017;51.514;-0.178;2023-02-10T06:25:59;103201.81;;;5.25;83.75
43420;BME280;29017;51.514;-0.178;2023-02-10T06:28:26;103200.09;;;5.24;83.86
43420;BME280;29017;51.514;-0.178;2023-02-10T06:30:53;103198.44;;;5.23;83.73
43420;BME280;29017;51.514;-0.178;2023-02-10T06:33:21;103209.78;;;5.22;83.45
43420;BME280;29017;51.514;-0.178;2023-02-10T06:35:48;103222.06;;;5.18;83.40
43420;BME280;29017;51.514;-0.178;2023-02-10T06:38:15;103217.69;;;5.19;83.77
43420;BME280;29017;51.514;-0.178;2023-02-10T06:40:42;103209.00;;;5.18;83.67
43420;BME280;29017;51.514;-0.178;2023-02-10T06:43:09;103212.56;;;5.18;83.75
43420;BME280;29017;51.514;-0.178;2023-02-10T06:45:36;103216.03;;;5.18;83.49
43420;BME280;29017;51.514;-0.178;2023-02-10T06:48:03;103216.78;;;5.20;83.84
43420;BME280;29017;51.514;-0.178;2023-02-10T06:50:31;103198.44;;;5.23;84.05
43420;BME280;29017;51.514;-0.178;2023-02-10T06:52:58;103195.81;;;5.23;83.53
43420;BME280;29017;51.514;-0.178;2023-02-10T06:55:25;103207.03;;;5.25;83.45
43420;BME280;29017;51.514;-0.178;2023-02-10T06:57:51;103193.97;;;5.25;83.39
43420;BME280;29017;51.514;-0.178;2023-02-10T07:00:18;103199.19;;;5.25;83.34
43420;BME280;29017;51.514;-0.178;2023-02-10T07:02:45;103198.31;;;5.26;83.34
43420;BME280;29017;51.514;-0.178;2023-02-10T07:05:15;103205.31;;;5.24;83.07
43420;BME280;29017;51.514;-0.178;2023-02-10T07:07:42;103216.78;;;5.20;83.34
43420;BME280;29017;51.514;-0.178;2023-02-10T07:10:09;103223.78;;;5.20;83.39
43420;BME280;29017;51.514;-0.178;2023-02-10T07:12:36;103229.06;;;5.18;83.50
43420;BME280;29017;51.514;-0.178;2023-02-10T07:15:03;103227.13;;;5.23;83.80
43420;BME280;29017;51.514;-0.178;2023-02-10T07:17:30;103239.19;;;5.26;83.72
43420;BME280;29017;51.514;-0.178;2023-02-10T07:19:57;103231.31;;;5.27;83.96
43420;BME280;29017;51.514;-0.178;2023-02-10T07:22:24;103238.16;;;5.30;83.95
43420;BME280;29017;51.514;-0.178;2023-02-10T07:24:51;103225.13;;;5.30;83.82
43420;BME280;29017;51.514;-0.178;2023-02-10T07:27:18;103218.94;;;5.32;83.85
43420;BME280;29017;51.514;-0.178;2023-02-10T07:29:45;103231.09;;;5.33;83.90
43420;BME280;29017;51.514;-0.178;2023-02-10T07:32:12;103220.56;;;5.35;83.80
43420;BME280;29017;51.514;-0.178;2023-02-10T07:34:39;103227.31;;;5.40;83.74
43420;BME280;29017;51.514;-0.178;2023-02-10T07:37:17;103226.41;;;5.41;83.33
43420;BME280;29017;51.514;-0.178;2023-02-10T07:39:44;103224.53;;;5.45;83.17
43420;BME280;29017;51.514;-0.178;2023-02-10T07:42:11;103220.06;;;5.48;83.22
43420;BME280;29017;51.514;-0.178;2023-02-10T07:44:38;103233.09;;;5.48;83.30
43420;BME280;29017;51.514;-0.178;2023-02-10T07:47:06;103231.31;;;5.49;82.81
43420;BME280;29017;51.514;-0.178;2023-02-10T07:49:33;103230.56;;;5.69;88.52
43420;BME280;29017;51.514;-0.178;2023-02-10T07:52:00;103239.88;;;5.74;87.96
43420;BME280;29017;51.514;-0.178;2023-02-10T07:54:27;103233.75;;;5.75;85.47
43420;BME280;29017;51.514;-0.178;2023-02-10T07:56:55;103228.47;;;5.77;84.17
43420;BME280;29017;51.514;-0.178;2023-02-10T07:59:22;103229.28;;;5.79;84.35
43420;BME280;29017;51.514;-0.178;2023-02-10T08:01:49;103231.78;;;5.80;84.36
43420;BME280;29017;51.514;-0.178;2023-02-10T08:04:16;103243.94;;;5.81;84.17
43420;BME280;29017;51.514;-0.178;2023-02-10T08:06:43;103240.44;;;5.82;82.78
43420;BME280;29017;51.514;-0.178;2023-02-10T08:09:10;103249.03;;;5.84;81.95
43420;BME280;29017;51.514;-0.178;2023-02-10T08:11:37;103248.13;;;5.87;82.08
43420;BME280;29017;51.514;-0.178;2023-02-10T08:14:04;103248.97;;;5.87;82.45
43420;BME280;29017;51.514;-0.178;2023-02-10T08:16:31;103236.63;;;5.91;82.20
43420;BME280;29017;51.514;-0.178;2023-02-10T08:18:58;103234.59;;;5.97;83.08
43420;BME280;29017;51.514;-0.178;2023-02-10T08:21:25;103231.75;;;6.04;82.81
43420;BME280;29017;51.514;-0.178;2023-02-10T08:23:53;103239.50;;;6.05;81.77
43420;BME280;29017;51.514;-0.178;2023-02-10T08:26:21;103242.00;;;6.08;80.74
43420;BME280;29017;51.514;-0.178;2023-02-10T08:28:49;103240.25;;;6.09;80.22
43420;BME280;29017;51.514;-0.178;2023-02-10T08:31:16;103244.44;;;6.13;80.08
43420;BME280;29017;51.514;-0.178;2023-02-10T08:33:44;103245.78;;;6.21;79.86
43420;BME280;29017;51.514;-0.178;2023-02-10T08:36:13;103243.59;;;6.32;79.93
43420;BME280;29017;51.514;-0.178;2023-02-10T08:38:41;103247.69;;;6.38;80.06
43420;BME280;29017;51.514;-0.178;2023-02-10T08:41:08;103247.50;;;6.42;80.66
43420;BME280;29017;51.514;-0.178;2023-02-10T08:43:35;103242.06;;;6.47;81.29
43420;BME280;29017;51.514;-0.178;2023-02-10T08:46:02;103245.66;;;6.65;79.49
43420;BME280;29017;51.514;-0.178;2023-02-10T08:48:29;103242.69;;;6.72;77.80
43420;BME280;29017;51.514;-0.178;2023-02-10T08:50:57;103248.28;;;6.65;77.78
43420;BME280;29017;51.514;-0.178;2023-02-10T08:53:25;103249.31;;;6.61;78.90
43420;BME280;29017;51.514;-0.178;2023-02-10T08:58:26;103262.72;;;6.53;79.70
43420;BME280;29017;51.514;-0.178;2023-02-10T09:00:53;103263.63;;;6.52;79.11
43420;BME280;29017;51.514;-0.178;2023-02-10T09:03:20;103277.50;;;6.54;79.04
43420;BME280;29017;51.514;-0.178;2023-02-10T09:05:47;103282.66;;;6.56;78.99
43420;BME280;29017;51.514;-0.178;2023-02-10T09:08:16;103277.31;;;6.59;78.77
43420;BME280;29017;51.514;-0.178;2023-02-10T09:10:44;103277.97;;;6.64;79.37
43420;BME280;29017;51.514;-0.178;2023-02-10T09:13:11;103271.88;;;6.63;79.19
43420;BME280;29017;51.514;-0.178;2023-02-10T09:15:40;103273.50;;;6.66;79.03
43420;BME280;29017;51.514;-0.178;2023-02-10T09:18:08;103273.44;;;6.67;79.21
43420;BME280;29017;51.514;-0.178;2023-02-10T09:20:35;103282.19;;;6.66;78.89
43420;BME280;29017;51.514;-0.178;2023-02-10T09:23:02;103275.28;;;6.65;79.06
43420;BME280;29017;51.514;-0.178;2023-02-10T09:25:30;103274.44;;;6.65;79.49
43420;BME280;29017;51.514;-0.178;2023-02-10T09:27:57;103278.16;;;6.59;78.82
43420;BME280;29017;51.514;-0.178;2023-02-10T09:30:24;103279.34;;;6.52;79.46
43420;BME280;29017;51.514;-0.178;2023-02-10T09:32:52;103278.47;;;6.52;80.18
43420;BME280;29017;51.514;-0.178;2023-02-10T09:35:19;103282.00;;;6.51;79.98
43420;BME280;29017;51.514;-0.178;2023-02-10T09:37:46;103287.06;;;6.55;79.43
43420;BME280;29017;51.514;-0.178;2023-02-10T09:45:15;103279.31;;;6.72;78.21
43420;BME280;29017;51.514;-0.178;2023-02-10T09:57:41;103263.16;;;6.83;77.49
43420;BME280;29017;51.514;-0.178;2023-02-10T10:00:14;103264.00;;;6.83;77.61
43420;BME280;29017;51.514;-0.178;2023-02-10T10:02:46;103277.72;;;6.88;77.31
43420;BME280;29017;51.514;-0.178;2023-02-10T10:05:18;103273.09;;;6.95;77.05
43420;BME280;29017;51.514;-0.178;2023-02-10T10:07:49;103281.44;;;7.03;77.60
43420;BME280;29017;51.514;-0.178;2023-02-10T10:10:20;103279.50;;;7.07;77.56
43420;BME280;29017;51.514;-0.178;2023-02-10T10:12:49;103280.16;;;7.12;77.80
43420;BME280;29017;51.514;-0.178;2023-02-10T10:15:16;103286.97;;;7.16;77.71
43420;BME280;29017;51.514;-0.178;2023-02-10T10:27:48;103289.22;;;7.42;74.33
43420;BME280;29017;51.514;-0.178;2023-02-10T10:30:23;103297.88;;;7.44;74.30
43420;BME280;29017;51.514;-0.178;2023-02-10T10:32:53;103299.34;;;7.50;74.48
43420;BME280;29017;51.514;-0.178;2023-02-10T10:35:26;103294.59;;;7.58;74.16
43420;BME280;29017;51.514;-0.178;2023-02-10T10:37:54;103292.59;;;7.63;73.39
43420;BME280;29017;51.514;-0.178;2023-02-10T10:40:24;103273.91;;;7.70;72.73
43420;BME280;29017;51.514;-0.178;2023-02-10T10:42:56;103278.78;;;7.78;73.03
43420;BME280;29017;51.514;-0.178;2023-02-10T10:47:57;103291.13;;;7.93;72.72
43420;BME280;29017;51.514;-0.178;2023-02-10T10:50:26;103282.06;;;8.00;71.33
43420;BME280;29017;51.514;-0.178;2023-02-10T10:52:54;103282.63;;;8.07;71.23
43420;BME280;29017;51.514;-0.178;2023-02-10T10:57:52;103290.03;;;8.16;72.22
43420;BME280;29017;51.514;-0.178;2023-02-10T11:00:22;103288.78;;;8.23;72.98
43420;BME280;29017;51.514;-0.178;2023-02-10T11:02:52;103281.50;;;8.30;71.73
43420;BME280;29017;51.514;-0.178;2023-02-10T11:05:19;103274.16;;;8.36;72.51
43420;BME280;29017;51.514;-0.178;2023-02-10T11:07:48;103280.88;;;8.42;72.22
43420;BME280;29017;51.514;-0.178;2023-02-10T11:12:46;103279.50;;;8.52;70.66
43420;BME280;29017;51.514;-0.178;2023-02-10T11:17:45;103277.06;;;8.65;69.65
43420;BME280;29017;51.514;-0.178;2023-02-10T11:22:42;103271.31;;;8.74;68.66
43420;BME280;29017;51.514;-0.178;2023-02-10T11:27:48;103266.38;;;8.85;67.67
43420;BME280;29017;51.514;-0.178;2023-02-10T11:32:45;103264.09;;;8.94;67.35
43420;BME280;29017;51.514;-0.178;2023-02-10T11:35:15;103252.44;;;9.00;67.45
43420;BME280;29017;51.514;-0.178;2023-02-10T11:37:42;103244.41;;;9.03;66.37
43420;BME280;29017;51.514;-0.178;2023-02-10T11:42:40;103231.69;;;9.11;66.87
43420;BME280;29017;51.514;-0.178;2023-02-10T11:47:35;103224.16;;;9.21;66.99
43420;BME280;29017;51.514;-0.178;2023-02-10T11:50:15;103225.59;;;9.26;67.07
43420;BME280;29017;51.514;-0.178;2023-02-10T11:52:44;103221.97;;;9.29;65.17
43420;BME280;29017;51.514;-0.178;2023-02-10T11:55:12;103218.16;;;9.34;64.71
43420;BME280;29017;51.514;-0.178;2023-02-10T12:05:13;103212.44;;;9.58;64.95
43420;BME280;29017;51.514;-0.178;2023-02-10T12:12:51;103195.59;;;9.76;63.30
43420;BME280;29017;51.514;-0.178;2023-02-10T12:35:22;103200.38;;;10.29;61.53
43420;BME280;29017;51.514;-0.178;2023-02-10T12:55:23;103172.38;;;10.42;63.42
43420;BME280;29017;51.514;-0.178;2023-02-10T13:02:50;103165.31;;;10.43;63.26
43420;BME280;29017;51.514;-0.178;2023-02-10T13:05:22;103162.53;;;10.46;63.62
43420;BME280;29017;51.514;-0.178;2023-02-10T13:12:55;103152.16;;;10.57;62.53
43420;BME280;29017;51.514;-0.178;2023-02-10T13:17:56;103133.75;;;10.71;63.05
43420;BME280;29017;51.514;-0.178;2023-02-10T13:20:27;103140.19;;;10.80;62.92
43420;BME280;29017;51.514;-0.178;2023-02-10T13:28:01;103143.19;;;11.02;61.14
43420;BME280;29017;51.514;-0.178;2023-02-10T13:35:31;103133.38;;;11.04;60.99
43420;BME280;29017;51.514;-0.178;2023-02-10T13:37:59;103129.78;;;11.05;62.55
43420;BME280;29017;51.514;-0.178;2023-02-10T13:40:44;103120.09;;;11.05;62.64
43420;BME280;29017;51.514;-0.178;2023-02-10T13:45:49;103126.84;;;11.09;62.85
43420;BME280;29017;51.514;-0.178;2023-02-10T13:50:47;103134.56;;;11.12;61.71
43420;BME280;29017;51.514;-0.178;2023-02-10T13:55:46;103118.56;;;11.15;61.75
43420;BME280;29017;51.514;-0.178;2023-02-10T14:00:44;103134.16;;;11.19;62.09
43420;BME280;29017;51.514;-0.178;2023-02-10T14:10:39;103127.75;;;11.23;61.20
43420;BME280;29017;51.514;-0.178;2023-02-10T14:15:38;103115.53;;;11.22;61.65
43420;BME280;29017;51.514;-0.178;2023-02-10T14:18:20;103106.13;;;11.18;61.59
43420;BME280;29017;51.514;-0.178;2023-02-10T14:23:19;103123.91;;;11.14;61.83
43420;BME280;29017;51.514;-0.178;2023-02-10T14:25:53;103115.47;;;11.09;62.43
43420;BME280;29017;51.514;-0.178;2023-02-10T14:28:22;103117.56;;;11.04;63.06
43420;BME280;29017;51.514;-0.178;2023-02-10T14:30:51;103116.84;;;11.02;63.72
43420;BME280;29017;51.514;-0.178;2023-02-10T14:35:48;103123.22;;;10.98;63.77
43420;BME280;29017;51.514;-0.178;2023-02-10T14:38:19;103123.34;;;10.96;64.96
43420;BME280;29017;51.514;-0.178;2023-02-10T14:40:46;103122.56;;;10.94;64.96
43420;BME280;29017;51.514;-0.178;2023-02-10T14:43:14;103129.00;;;10.90;65.07
43420;BME280;29017;51.514;-0.178;2023-02-10T14:45:45;103126.75;;;10.84;65.19
43420;BME280;29017;51.514;-0.178;2023-02-10T14:48:12;103131.25;;;10.82;65.35
43420;BME280;29017;51.514;-0.178;2023-02-10T14:50:40;103119.97;;;10.80;66.87
43420;BME280;29017;51.514;-0.178;2023-02-10T14:53:16;103126.09;;;10.81;66.96
43420;BME280;29017;51.514;-0.178;2023-02-10T14:55:43;103143.03;;;10.77;66.82
43420;BME280;29017;51.514;-0.178;2023-02-10T14:58:14;103139.44;;;10.78;66.79
43420;BME280;29017;51.514;-0.178;2023-02-10T15:00:42;103142.19;;;10.76;66.42
43420;BME280;29017;51.514;-0.178;2023-02-10T15:03:19;103143.97;;;10.76;66.92
43420;BME280;29017;51.514;-0.178;2023-02-10T15:05:47;103152.06;;;10.72;66.95
43420;BME280;29017;51.514;-0.178;2023-02-10T15:08:16;103150.38;;;10.71;67.19
43420;BME280;29017;51.514;-0.178;2023-02-10T15:10:47;103155.72;;;10.70;67.38
43420;BME280;29017;51.514;-0.178;2023-02-10T15:13:18;103149.72;;;10.68;67.68
43420;BME280;29017;51.514;-0.178;2023-02-10T15:15:47;103159.31;;;10.69;67.52
43420;BME280;29017;51.514;-0.178;2023-02-10T15:18:18;103158.47;;;10.68;67.95
43420;BME280;29017;51.514;-0.178;2023-02-10T15:23:17;103150.75;;;10.65;68.24
43420;BME280;29017;51.514;-0.178;2023-02-10T15:28:28;103146.88;;;10.57;69.67
43420;BME280;29017;51.514;-0.178;2023-02-10T15:33:24;103140.91;;;10.55;70.11
43420;BME280;29017;51.514;-0.178;2023-02-10T15:38:24;103155.19;;;10.51;69.81
43420;BME280;29017;51.514;-0.178;2023-02-10T15:40:54;103158.66;;;10.51;70.51
43420;BME280;29017;51.514;-0.178;2023-02-10T15:46:03;103157.72;;;10.52;70.17
43420;BME280;29017;51.514;-0.178;2023-02-10T15:48:30;103157.53;;;10.55;70.77
43420;BME280;29017;51.514;-0.178;2023-02-10T15:51:13;103155.94;;;10.53;70.46
43420;BME280;29017;51.514;-0.178;2023-02-10T15:53:46;103163.09;;;10.51;70.74
43420;BME280;29017;51.514;-0.178;2023-02-10T15:56:13;103157.63;;;10.54;71.26
43420;BME280;29017;51.514;-0.178;2023-02-10T15:58:40;103148.72;;;10.56;71.83
43420;BME280;29017;51.514;-0.178;2023-02-10T16:01:07;103141.06;;;10.52;71.30